St. Paul, Alberta

Past 24 Hour Conditions

Date / Time
(MDT)
Conditions Temp
(°F)
Humidity
(%)
Dew Point
(°F)
Wind
(mph)
Pressure
(inches)
Visibility
(miles)
31 July 2015
2:00 N/A 48 50 30 calm N/A N/A
1:00 N/A 48 49 30 calm N/A N/A
00:00 N/A 50 49 31 calm N/A N/A
30 July 2015
23:00 N/A 53 48 34 calm N/A N/A
22:00 N/A 57 46 36 calm N/A N/A
21:00 N/A 64 40 40 calm N/A N/A
20:00 N/A 67 34 37 WNW 4 N/A N/A
19:00 N/A 71 29 37 W 13 N/A N/A
18:00 N/A 71 29 37 WNW 10 N/A N/A
17:00 N/A 72   29 39 WNW 8 N/A N/A
16:00 N/A 72   29 37 W 12 N/A N/A
15:00 N/A 71 29 37 WNW 15 N/A N/A
14:00 N/A 70 29 37 W 14 N/A N/A
13:00 N/A 69 32 38 W 11 N/A N/A
12:00 N/A 67 35 38 WSW 13 N/A N/A
11:00 N/A 64 37 37 W 10 N/A N/A
10:00 N/A 61 39 36 W 10 N/A N/A
9:00 N/A 58 43 36 WSW 6 N/A N/A
8:00 N/A 53 46 33 WSW 8 N/A N/A
7:00 N/A 48 49 30 WSW 6 N/A N/A
6:00 N/A 45   49 27 WSW 3 N/A N/A
5:00 N/A 46 48 27 WSW 6 N/A N/A
4:00 N/A 47 50 29 WSW 5 N/A N/A
3:00 N/A 47 49 29 WSW 6 N/A N/A
2:00 N/A 47 49 29 SW 7 N/A N/A
N/A Not available
↑ Highest temperature
↓ Lowest temperature

If you require additional historical weather information, please visit Climate Data Online.

What we are doing

Date modified: